sensor_id;sensor_type;location;lat;lon;timestamp;P1;durP1;ratioP1;P2;durP2;ratioP2
37517;SDS011;23366;52.498;13.446;2024-01-10T00:02:14;53.88;;;18.33;;
37517;SDS011;23366;52.498;13.446;2024-01-10T00:04:40;37.55;;;14.77;;
37517;SDS011;23366;52.498;13.446;2024-01-10T00:07:06;41.40;;;14.35;;
37517;SDS011;23366;52.498;13.446;2024-01-10T00:09:32;47.47;;;17.55;;
37517;SDS011;23366;52.498;13.446;2024-01-10T00:11:58;35.22;;;16.35;;
37517;SDS011;23366;52.498;13.446;2024-01-10T00:14:24;34.97;;;14.98;;
37517;SDS011;23366;52.498;13.446;2024-01-10T00:16:50;42.13;;;17.80;;
37517;SDS011;23366;52.498;13.446;2024-01-10T00:19:15;47.80;;;17.58;;
37517;SDS011;23366;52.498;13.446;2024-01-10T00:21:41;42.92;;;17.15;;
37517;SDS011;23366;52.498;13.446;2024-01-10T00:24:07;43.60;;;15.32;;
37517;SDS011;23366;52.498;13.446;2024-01-10T00:26:33;32.83;;;16.05;;
37517;SDS011;23366;52.498;13.446;2024-01-10T00:28:59;60.00;;;18.27;;
37517;SDS011;23366;52.498;13.446;2024-01-10T00:31:25;44.72;;;16.92;;
37517;SDS011;23366;52.498;13.446;2024-01-10T00:33:51;40.45;;;19.73;;
37517;SDS011;23366;52.498;13.446;2024-01-10T00:36:17;42.65;;;16.15;;
37517;SDS011;23366;52.498;13.446;2024-01-10T00:38:43;37.20;;;15.02;;
37517;SDS011;23366;52.498;13.446;2024-01-10T00:41:09;41.63;;;16.25;;
37517;SDS011;23366;52.498;13.446;2024-01-10T00:43:36;32.97;;;15.88;;
37517;SDS011;23366;52.498;13.446;2024-01-10T00:46:02;45.67;;;16.30;;
37517;SDS011;23366;52.498;13.446;2024-01-10T00:48:28;42.85;;;16.63;;
37517;SDS011;23366;52.498;13.446;2024-01-10T00:50:54;44.78;;;20.27;;
37517;SDS011;23366;52.498;13.446;2024-01-10T00:53:20;44.05;;;19.63;;
37517;SDS011;23366;52.498;13.446;2024-01-10T00:55:46;47.10;;;16.30;;
37517;SDS011;23366;52.498;13.446;2024-01-10T00:58:12;45.42;;;17.52;;
37517;SDS011;23366;52.498;13.446;2024-01-10T01:00:38;38.22;;;16.50;;
37517;SDS011;23366;52.498;13.446;2024-01-10T01:03:06;44.95;;;18.77;;
37517;SDS011;23366;52.498;13.446;2024-01-10T01:05:32;42.53;;;17.00;;
37517;SDS011;23366;52.498;13.446;2024-01-10T01:07:58;41.03;;;17.13;;
37517;SDS011;23366;52.498;13.446;2024-01-10T01:10:24;31.35;;;15.88;;
37517;SDS011;23366;52.498;13.446;2024-01-10T01:12:50;43.53;;;18.30;;
37517;SDS011;23366;52.498;13.446;2024-01-10T01:15:15;45.78;;;17.60;;
37517;SDS011;23366;52.498;13.446;2024-01-10T01:17:41;37.47;;;16.85;;
37517;SDS011;23366;52.498;13.446;2024-01-10T01:20:07;37.13;;;17.95;;
37517;SDS011;23366;52.498;13.446;2024-01-10T01:22:34;30.08;;;15.68;;
37517;SDS011;23366;52.498;13.446;2024-01-10T01:25:00;42.65;;;20.20;;
37517;SDS011;23366;52.498;13.446;2024-01-10T01:27:26;44.10;;;16.45;;
37517;SDS011;23366;52.498;13.446;2024-01-10T01:29:51;41.67;;;18.42;;
37517;SDS011;23366;52.498;13.446;2024-01-10T01:32:17;44.95;;;18.65;;
37517;SDS011;23366;52.498;13.446;2024-01-10T01:34:43;45.22;;;18.95;;
37517;SDS011;23366;52.498;13.446;2024-01-10T01:37:09;61.60;;;20.08;;
37517;SDS011;23366;52.498;13.446;2024-01-10T01:39:35;52.10;;;18.30;;
37517;SDS011;23366;52.498;13.446;2024-01-10T01:42:01;34.08;;;15.15;;
37517;SDS011;23366;52.498;13.446;2024-01-10T01:44:27;40.92;;;16.10;;
37517;SDS011;23366;52.498;13.446;2024-01-10T01:46:53;40.72;;;15.38;;
37517;SDS011;23366;52.498;13.446;2024-01-10T01:49:19;43.55;;;18.55;;
37517;SDS011;23366;52.498;13.446;2024-01-10T01:51:45;36.97;;;16.48;;
37517;SDS011;23366;52.498;13.446;2024-01-10T01:54:12;43.92;;;16.45;;
37517;SDS011;23366;52.498;13.446;2024-01-10T01:56:39;38.47;;;17.00;;
37517;SDS011;23366;52.498;13.446;2024-01-10T01:59:05;33.20;;;17.10;;
37517;SDS011;23366;52.498;13.446;2024-01-10T02:01:31;47.45;;;16.45;;
37517;SDS011;23366;52.498;13.446;2024-01-10T02:03:57;44.83;;;17.02;;
37517;SDS011;23366;52.498;13.446;2024-01-10T02:06:24;34.08;;;17.85;;
37517;SDS011;23366;52.498;13.446;2024-01-10T02:08:50;35.15;;;15.82;;
37517;SDS011;23366;52.498;13.446;2024-01-10T02:11:17;47.05;;;17.75;;
37517;SDS011;23366;52.498;13.446;2024-01-10T02:13:43;39.92;;;18.17;;
37517;SDS011;23366;52.498;13.446;2024-01-10T02:16:09;43.08;;;17.73;;
37517;SDS011;23366;52.498;13.446;2024-01-10T02:18:35;38.30;;;18.70;;
37517;SDS011;23366;52.498;13.446;2024-01-10T02:21:01;38.38;;;17.58;;
37517;SDS011;23366;52.498;13.446;2024-01-10T02:23:27;39.65;;;17.30;;
37517;SDS011;23366;52.498;13.446;2024-01-10T02:25:53;38.92;;;16.35;;
37517;SDS011;23366;52.498;13.446;2024-01-10T02:28:19;37.40;;;16.08;;
37517;SDS011;23366;52.498;13.446;2024-01-10T02:30:45;40.20;;;17.85;;
37517;SDS011;23366;52.498;13.446;2024-01-10T02:33:12;47.80;;;16.45;;
37517;SDS011;23366;52.498;13.446;2024-01-10T02:35:38;37.47;;;15.95;;
37517;SDS011;23366;52.498;13.446;2024-01-10T02:38:04;35.05;;;15.95;;
37517;SDS011;23366;52.498;13.446;2024-01-10T02:40:30;44.97;;;18.85;;
37517;SDS011;23366;52.498;13.446;2024-01-10T02:42:55;41.83;;;16.70;;
37517;SDS011;23366;52.498;13.446;2024-01-10T02:45:21;38.92;;;14.77;;
37517;SDS011;23366;52.498;13.446;2024-01-10T02:47:47;40.10;;;15.65;;
37517;SDS011;23366;52.498;13.446;2024-01-10T02:50:13;33.00;;;16.80;;
37517;SDS011;23366;52.498;13.446;2024-01-10T02:52:39;30.08;;;14.50;;
37517;SDS011;23366;52.498;13.446;2024-01-10T02:55:05;43.97;;;15.68;;
37517;SDS011;23366;52.498;13.446;2024-01-10T02:57:31;45.17;;;15.75;;
37517;SDS011;23366;52.498;13.446;2024-01-10T02:59:57;42.40;;;15.23;;
37517;SDS011;23366;52.498;13.446;2024-01-10T03:02:23;46.97;;;20.02;;
37517;SDS011;23366;52.498;13.446;2024-01-10T03:04:49;34.58;;;16.42;;
37517;SDS011;23366;52.498;13.446;2024-01-10T03:07:15;58.50;;;18.75;;
37517;SDS011;23366;52.498;13.446;2024-01-10T03:09:41;40.65;;;17.08;;
37517;SDS011;23366;52.498;13.446;2024-01-10T03:12:07;39.20;;;14.82;;
37517;SDS011;23366;52.498;13.446;2024-01-10T03:14:33;47.97;;;17.42;;
37517;SDS011;23366;52.498;13.446;2024-01-10T03:16:59;48.58;;;17.55;;
37517;SDS011;23366;52.498;13.446;2024-01-10T03:19:25;34.30;;;15.63;;
37517;SDS011;23366;52.498;13.446;2024-01-10T03:21:51;49.88;;;19.98;;
37517;SDS011;23366;52.498;13.446;2024-01-10T03:24:17;51.40;;;19.73;;
37517;SDS011;23366;52.498;13.446;2024-01-10T03:26:43;35.22;;;17.15;;
37517;SDS011;23366;52.498;13.446;2024-01-10T03:29:09;35.90;;;17.25;;
37517;SDS011;23366;52.498;13.446;2024-01-10T03:31:35;40.85;;;18.42;;
37517;SDS011;23366;52.498;13.446;2024-01-10T03:34:01;38.80;;;20.38;;
37517;SDS011;23366;52.498;13.446;2024-01-10T03:36:27;43.17;;;17.77;;
37517;SDS011;23366;52.498;13.446;2024-01-10T03:38:53;37.70;;;16.08;;
37517;SDS011;23366;52.498;13.446;2024-01-10T03:41:19;36.90;;;13.90;;
37517;SDS011;23366;52.498;13.446;2024-01-10T03:43:46;47.28;;;18.42;;
37517;SDS011;23366;52.498;13.446;2024-01-10T03:46:12;37.70;;;15.68;;
37517;SDS011;23366;52.498;13.446;2024-01-10T03:48:38;45.65;;;20.65;;
37517;SDS011;23366;52.498;13.446;2024-01-10T03:51:16;40.67;;;19.45;;
37517;SDS011;23366;52.498;13.446;2024-01-10T03:53:43;42.13;;;17.70;;
37517;SDS011;23366;52.498;13.446;2024-01-10T03:56:09;50.88;;;18.50;;
37517;SDS011;23366;52.498;13.446;2024-01-10T03:58:35;43.53;;;18.25;;
37517;SDS011;23366;52.498;13.446;2024-01-10T04:01:07;38.38;;;17.00;;
37517;SDS011;23366;52.498;13.446;2024-01-10T04:03:34;31.25;;;14.88;;
37517;SDS011;23366;52.498;13.446;2024-01-10T04:06:00;53.78;;;17.23;;
37517;SDS011;23366;52.498;13.446;2024-01-10T04:08:27;32.67;;;14.27;;
37517;SDS011;23366;52.498;13.446;2024-01-10T04:10:53;41.72;;;17.95;;
37517;SDS011;23366;52.498;13.446;2024-01-10T04:13:18;42.17;;;15.63;;
37517;SDS011;23366;52.498;13.446;2024-01-10T04:15:44;42.88;;;19.63;;
37517;SDS011;23366;52.498;13.446;2024-01-10T04:18:10;41.78;;;16.42;;
37517;SDS011;23366;52.498;13.446;2024-01-10T04:20:36;49.65;;;18.00;;
37517;SDS011;23366;52.498;13.446;2024-01-10T04:23:02;40.22;;;15.98;;
37517;SDS011;23366;52.498;13.446;2024-01-10T04:25:28;43.13;;;17.60;;
37517;SDS011;23366;52.498;13.446;2024-01-10T04:27:54;35.47;;;15.65;;
37517;SDS011;23366;52.498;13.446;2024-01-10T04:30:20;32.05;;;15.80;;
37517;SDS011;23366;52.498;13.446;2024-01-10T04:32:46;46.60;;;18.20;;
37517;SDS011;23366;52.498;13.446;2024-01-10T04:35:12;39.22;;;17.05;;
37517;SDS011;23366;52.498;13.446;2024-01-10T04:37:38;39.22;;;15.23;;
37517;SDS011;23366;52.498;13.446;2024-01-10T04:40:04;33.08;;;13.57;;
37517;SDS011;23366;52.498;13.446;2024-01-10T04:42:30;39.55;;;17.33;;
37517;SDS011;23366;52.498;13.446;2024-01-10T04:44:56;47.85;;;17.00;;
37517;SDS011;23366;52.498;13.446;2024-01-10T04:47:22;41.53;;;17.48;;
37517;SDS011;23366;52.498;13.446;2024-01-10T04:49:48;37.67;;;14.50;;
37517;SDS011;23366;52.498;13.446;2024-01-10T04:52:14;42.22;;;16.83;;
37517;SDS011;23366;52.498;13.446;2024-01-10T04:54:40;45.63;;;17.50;;
37517;SDS011;23366;52.498;13.446;2024-01-10T04:57:06;42.47;;;19.25;;
37517;SDS011;23366;52.498;13.446;2024-01-10T04:59:35;39.50;;;14.63;;
37517;SDS011;23366;52.498;13.446;2024-01-10T05:02:01;40.92;;;19.50;;
37517;SDS011;23366;52.498;13.446;2024-01-10T05:04:27;43.45;;;21.30;;
37517;SDS011;23366;52.498;13.446;2024-01-10T05:06:52;42.90;;;17.63;;
37517;SDS011;23366;52.498;13.446;2024-01-10T05:09:18;33.55;;;16.17;;
37517;SDS011;23366;52.498;13.446;2024-01-10T05:11:44;38.58;;;18.17;;
37517;SDS011;23366;52.498;13.446;2024-01-10T05:14:13;32.50;;;17.20;;
37517;SDS011;23366;52.498;13.446;2024-01-10T05:16:39;38.83;;;14.45;;
37517;SDS011;23366;52.498;13.446;2024-01-10T05:19:05;45.13;;;20.88;;
37517;SDS011;23366;52.498;13.446;2024-01-10T05:21:31;42.78;;;17.33;;
37517;SDS011;23366;52.498;13.446;2024-01-10T05:23:58;44.20;;;18.92;;
37517;SDS011;23366;52.498;13.446;2024-01-10T05:26:24;56.35;;;16.92;;
37517;SDS011;23366;52.498;13.446;2024-01-10T05:28:50;36.25;;;15.23;;
37517;SDS011;23366;52.498;13.446;2024-01-10T05:31:15;42.88;;;17.30;;
37517;SDS011;23366;52.498;13.446;2024-01-10T05:33:41;42.47;;;19.50;;
37517;SDS011;23366;52.498;13.446;2024-01-10T05:36:08;42.03;;;16.88;;
37517;SDS011;23366;52.498;13.446;2024-01-10T05:38:36;46.47;;;18.23;;
37517;SDS011;23366;52.498;13.446;2024-01-10T05:41:02;41.35;;;18.25;;
37517;SDS011;23366;52.498;13.446;2024-01-10T05:43:28;41.53;;;16.75;;
37517;SDS011;23366;52.498;13.446;2024-01-10T05:45:54;43.10;;;17.80;;
37517;SDS011;23366;52.498;13.446;2024-01-10T05:48:20;60.33;;;18.20;;
37517;SDS011;23366;52.498;13.446;2024-01-10T05:50:46;38.10;;;15.18;;
37517;SDS011;23366;52.498;13.446;2024-01-10T05:53:12;45.08;;;17.90;;
37517;SDS011;23366;52.498;13.446;2024-01-10T05:55:42;42.67;;;16.15;;
37517;SDS011;23366;52.498;13.446;2024-01-10T05:58:08;37.92;;;14.60;;
37517;SDS011;23366;52.498;13.446;2024-01-10T06:00:34;39.78;;;18.58;;
37517;SDS011;23366;52.498;13.446;2024-01-10T06:03:00;33.33;;;15.80;;
37517;SDS011;23366;52.498;13.446;2024-01-10T06:05:26;42.97;;;18.27;;
37517;SDS011;23366;52.498;13.446;2024-01-10T06:07:52;62.78;;;20.58;;
37517;SDS011;23366;52.498;13.446;2024-01-10T06:10:18;49.58;;;24.13;;
37517;SDS011;23366;52.498;13.446;2024-01-10T06:12:44;49.08;;;16.05;;
37517;SDS011;23366;52.498;13.446;2024-01-10T06:15:10;37.92;;;18.48;;
37517;SDS011;23366;52.498;13.446;2024-01-10T06:17:36;47.22;;;14.60;;
37517;SDS011;23366;52.498;13.446;2024-01-10T06:20:03;36.33;;;17.02;;
37517;SDS011;23366;52.498;13.446;2024-01-10T06:22:29;41.30;;;16.73;;
37517;SDS011;23366;52.498;13.446;2024-01-10T06:24:56;49.78;;;19.77;;
37517;SDS011;23366;52.498;13.446;2024-01-10T06:27:22;50.40;;;17.98;;
37517;SDS011;23366;52.498;13.446;2024-01-10T06:29:48;43.63;;;17.60;;
37517;SDS011;23366;52.498;13.446;2024-01-10T06:32:14;56.08;;;19.58;;
37517;SDS011;23366;52.498;13.446;2024-01-10T06:34:40;33.60;;;16.20;;
37517;SDS011;23366;52.498;13.446;2024-01-10T06:37:06;49.88;;;18.30;;
37517;SDS011;23366;52.498;13.446;2024-01-10T06:39:32;46.47;;;19.25;;
37517;SDS011;23366;52.498;13.446;2024-01-10T06:41:58;35.30;;;18.98;;
37517;SDS011;23366;52.498;13.446;2024-01-10T06:44:24;54.72;;;18.38;;
37517;SDS011;23366;52.498;13.446;2024-01-10T06:46:52;45.03;;;19.83;;
37517;SDS011;23366;52.498;13.446;2024-01-10T06:49:18;35.03;;;18.77;;
37517;SDS011;23366;52.498;13.446;2024-01-10T06:51:44;45.25;;;18.05;;
37517;SDS011;23366;52.498;13.446;2024-01-10T06:54:10;43.45;;;17.00;;
37517;SDS011;23366;52.498;13.446;2024-01-10T06:56:36;44.78;;;18.77;;
37517;SDS011;23366;52.498;13.446;2024-01-10T06:59:02;43.80;;;17.25;;
37517;SDS011;23366;52.498;13.446;2024-01-10T07:01:28;36.70;;;18.27;;
37517;SDS011;23366;52.498;13.446;2024-01-10T07:03:54;44.50;;;18.73;;
37517;SDS011;23366;52.498;13.446;2024-01-10T07:06:20;37.42;;;17.27;;
37517;SDS011;23366;52.498;13.446;2024-01-10T07:08:47;34.72;;;15.32;;
37517;SDS011;23366;52.498;13.446;2024-01-10T07:11:14;35.63;;;17.25;;
37517;SDS011;23366;52.498;13.446;2024-01-10T07:13:40;39.85;;;18.20;;
37517;SDS011;23366;52.498;13.446;2024-01-10T07:16:06;37.85;;;17.90;;
37517;SDS011;23366;52.498;13.446;2024-01-10T07:18:32;46.83;;;17.90;;
37517;SDS011;23366;52.498;13.446;2024-01-10T07:20:58;44.65;;;17.25;;
37517;SDS011;23366;52.498;13.446;2024-01-10T07:23:24;42.97;;;18.83;;
37517;SDS011;23366;52.498;13.446;2024-01-10T07:25:50;36.38;;;17.20;;
37517;SDS011;23366;52.498;13.446;2024-01-10T07:28:17;41.85;;;18.35;;
37517;SDS011;23366;52.498;13.446;2024-01-10T07:30:43;49.05;;;18.65;;
37517;SDS011;23366;52.498;13.446;2024-01-10T07:33:09;51.80;;;17.73;;
37517;SDS011;23366;52.498;13.446;2024-01-10T07:35:35;39.60;;;18.63;;
37517;SDS011;23366;52.498;13.446;2024-01-10T07:38:01;47.70;;;18.83;;
37517;SDS011;23366;52.498;13.446;2024-01-10T07:40:27;47.97;;;18.67;;
37517;SDS011;23366;52.498;13.446;2024-01-10T07:42:53;35.90;;;16.05;;
37517;SDS011;23366;52.498;13.446;2024-01-10T07:45:19;36.00;;;17.52;;
37517;SDS011;23366;52.498;13.446;2024-01-10T07:47:45;43.50;;;19.75;;
37517;SDS011;23366;52.498;13.446;2024-01-10T07:50:11;50.28;;;19.10;;
37517;SDS011;23366;52.498;13.446;2024-01-10T07:52:39;46.78;;;18.90;;
37517;SDS011;23366;52.498;13.446;2024-01-10T07:55:05;39.90;;;18.88;;
37517;SDS011;23366;52.498;13.446;2024-01-10T07:57:31;42.55;;;18.83;;
37517;SDS011;23366;52.498;13.446;2024-01-10T07:59:58;52.28;;;20.48;;
37517;SDS011;23366;52.498;13.446;2024-01-10T08:02:24;41.47;;;16.48;;
37517;SDS011;23366;52.498;13.446;2024-01-10T08:04:51;50.30;;;22.45;;
37517;SDS011;23366;52.498;13.446;2024-01-10T08:07:17;53.67;;;22.05;;
37517;SDS011;23366;52.498;13.446;2024-01-10T08:09:44;43.42;;;19.65;;
37517;SDS011;23366;52.498;13.446;2024-01-10T08:12:10;37.97;;;18.55;;
37517;SDS011;23366;52.498;13.446;2024-01-10T08:14:39;43.63;;;20.48;;
37517;SDS011;23366;52.498;13.446;2024-01-10T08:17:05;28.45;;;14.88;;
37517;SDS011;23366;52.498;13.446;2024-01-10T08:19:32;49.85;;;19.00;;
37517;SDS011;23366;52.498;13.446;2024-01-10T08:21:58;45.88;;;18.95;;
37517;SDS011;23366;52.498;13.446;2024-01-10T08:24:24;50.60;;;17.08;;
37517;SDS011;23366;52.498;13.446;2024-01-10T08:26:50;35.92;;;19.25;;
37517;SDS011;23366;52.498;13.446;2024-01-10T08:29:19;48.45;;;17.73;;
37517;SDS011;23366;52.498;13.446;2024-01-10T08:31:46;48.33;;;18.13;;
37517;SDS011;23366;52.498;13.446;2024-01-10T08:34:12;41.50;;;16.90;;
37517;SDS011;23366;52.498;13.446;2024-01-10T08:36:38;38.33;;;17.33;;
37517;SDS011;23366;52.498;13.446;2024-01-10T08:39:04;56.05;;;18.27;;
37517;SDS011;23366;52.498;13.446;2024-01-10T08:41:31;48.97;;;17.40;;
37517;SDS011;23366;52.498;13.446;2024-01-10T08:43:57;54.22;;;21.95;;
37517;SDS011;23366;52.498;13.446;2024-01-10T08:46:23;51.67;;;20.27;;
37517;SDS011;23366;52.498;13.446;2024-01-10T08:48:49;49.78;;;19.23;;
37517;SDS011;23366;52.498;13.446;2024-01-10T08:51:15;45.13;;;18.20;;
37517;SDS011;23366;52.498;13.446;2024-01-10T08:53:42;57.45;;;20.33;;
37517;SDS011;23366;52.498;13.446;2024-01-10T08:56:08;60.75;;;23.52;;
37517;SDS011;23366;52.498;13.446;2024-01-10T08:58:33;50.63;;;20.55;;
37517;SDS011;23366;52.498;13.446;2024-01-10T09:00:59;44.85;;;16.80;;
37517;SDS011;23366;52.498;13.446;2024-01-10T09:03:25;51.65;;;19.70;;
37517;SDS011;23366;52.498;13.446;2024-01-10T09:05:51;44.55;;;18.55;;
37517;SDS011;23366;52.498;13.446;2024-01-10T09:08:17;50.28;;;18.40;;
37517;SDS011;23366;52.498;13.446;2024-01-10T09:10:43;46.53;;;20.48;;
37517;SDS011;23366;52.498;13.446;2024-01-10T09:13:09;45.80;;;19.67;;
37517;SDS011;23366;52.498;13.446;2024-01-10T09:15:35;51.53;;;21.00;;
37517;SDS011;23366;52.498;13.446;2024-01-10T09:18:01;45.83;;;16.85;;
37517;SDS011;23366;52.498;13.446;2024-01-10T09:20:27;39.88;;;19.65;;
37517;SDS011;23366;52.498;13.446;2024-01-10T09:22:53;39.60;;;16.55;;
37517;SDS011;23366;52.498;13.446;2024-01-10T09:25:19;42.60;;;19.77;;
37517;SDS011;23366;52.498;13.446;2024-01-10T09:27:45;48.65;;;17.65;;
37517;SDS011;23366;52.498;13.446;2024-01-10T09:30:12;40.90;;;17.15;;
37517;SDS011;23366;52.498;13.446;2024-01-10T09:32:41;45.72;;;21.95;;
37517;SDS011;23366;52.498;13.446;2024-01-10T09:35:07;46.38;;;19.85;;
37517;SDS011;23366;52.498;13.446;2024-01-10T09:37:33;53.17;;;19.20;;
37517;SDS011;23366;52.498;13.446;2024-01-10T09:40:00;38.60;;;16.33;;
37517;SDS011;23366;52.498;13.446;2024-01-10T09:42:26;47.22;;;16.88;;
37517;SDS011;23366;52.498;13.446;2024-01-10T09:44:51;35.90;;;17.00;;
37517;SDS011;23366;52.498;13.446;2024-01-10T09:47:18;38.15;;;15.60;;
37517;SDS011;23366;52.498;13.446;2024-01-10T09:49:45;61.50;;;20.40;;
37517;SDS011;23366;52.498;13.446;2024-01-10T09:52:11;40.75;;;16.85;;
37517;SDS011;23366;52.498;13.446;2024-01-10T09:54:41;48.30;;;16.77;;
37517;SDS011;23366;52.498;13.446;2024-01-10T09:57:11;39.25;;;17.85;;
37517;SDS011;23366;52.498;13.446;2024-01-10T09:59:37;47.40;;;16.88;;
37517;SDS011;23366;52.498;13.446;2024-01-10T10:02:03;43.20;;;17.27;;
37517;SDS011;23366;52.498;13.446;2024-01-10T10:04:29;37.78;;;17.63;;
37517;SDS011;23366;52.498;13.446;2024-01-10T10:06:59;42.72;;;18.35;;
37517;SDS011;23366;52.498;13.446;2024-01-10T10:09:26;42.28;;;17.35;;
37517;SDS011;23366;52.498;13.446;2024-01-10T10:11:53;47.92;;;17.88;;
37517;SDS011;23366;52.498;13.446;2024-01-10T10:14:19;46.20;;;18.95;;
37517;SDS011;23366;52.498;13.446;2024-01-10T10:16:45;50.50;;;21.30;;
37517;SDS011;23366;52.498;13.446;2024-01-10T10:19:11;41.22;;;14.05;;
37517;SDS011;23366;52.498;13.446;2024-01-10T10:21:38;36.33;;;16.80;;
37517;SDS011;23366;52.498;13.446;2024-01-10T10:24:04;28.20;;;13.45;;
37517;SDS011;23366;52.498;13.446;2024-01-10T10:26:34;42.45;;;18.58;;
37517;SDS011;23366;52.498;13.446;2024-01-10T10:29:00;33.65;;;15.77;;
37517;SDS011;23366;52.498;13.446;2024-01-10T10:31:27;46.95;;;17.52;;
37517;SDS011;23366;52.498;13.446;2024-01-10T10:33:54;37.20;;;15.60;;
37517;SDS011;23366;52.498;13.446;2024-01-10T10:36:20;32.50;;;18.23;;
37517;SDS011;23366;52.498;13.446;2024-01-10T10:38:47;43.92;;;20.02;;
37517;SDS011;23366;52.498;13.446;2024-01-10T10:41:13;48.72;;;20.10;;
37517;SDS011;23366;52.498;13.446;2024-01-10T10:43:40;41.28;;;16.83;;
37517;SDS011;23366;52.498;13.446;2024-01-10T10:46:08;49.72;;;18.25;;
37517;SDS011;23366;52.498;13.446;2024-01-10T10:48:37;52.85;;;19.67;;
37517;SDS011;23366;52.498;13.446;2024-01-10T10:51:03;37.35;;;18.48;;
37517;SDS011;23366;52.498;13.446;2024-01-10T10:53:34;35.50;;;16.58;;
37517;SDS011;23366;52.498;13.446;2024-01-10T10:56:00;34.63;;;16.67;;
37517;SDS011;23366;52.498;13.446;2024-01-10T10:58:28;41.50;;;16.08;;
37517;SDS011;23366;52.498;13.446;2024-01-10T11:00:53;36.90;;;15.35;;
37517;SDS011;23366;52.498;13.446;2024-01-10T11:03:20;41.47;;;17.30;;
37517;SDS011;23366;52.498;13.446;2024-01-10T11:05:47;39.25;;;16.50;;
37517;SDS011;23366;52.498;13.446;2024-01-10T11:08:14;34.92;;;14.23;;
37517;SDS011;23366;52.498;13.446;2024-01-10T11:10:42;38.58;;;15.50;;
37517;SDS011;23366;52.498;13.446;2024-01-10T11:18:29;32.90;;;12.63;;
37517;SDS011;23366;52.498;13.446;2024-01-10T11:21:06;38.03;;;13.20;;
37517;SDS011;23366;52.498;13.446;2024-01-10T11:23:46;37.33;;;14.52;;
37517;SDS011;23366;52.498;13.446;2024-01-10T11:26:14;37.22;;;13.40;;
37517;SDS011;23366;52.498;13.446;2024-01-10T11:28:40;40.22;;;17.80;;
37517;SDS011;23366;52.498;13.446;2024-01-10T11:31:06;35.63;;;13.95;;
37517;SDS011;23366;52.498;13.446;2024-01-10T11:33:38;28.42;;;12.85;;
37517;SDS011;23366;52.498;13.446;2024-01-10T11:36:15;25.35;;;14.23;;
37517;SDS011;23366;52.498;13.446;2024-01-10T11:38:42;32.03;;;13.55;;
37517;SDS011;23366;52.498;13.446;2024-01-10T11:41:15;32.50;;;12.65;;
37517;SDS011;23366;52.498;13.446;2024-01-10T11:43:41;29.15;;;14.88;;
37517;SDS011;23366;52.498;13.446;2024-01-10T11:46:07;34.80;;;13.68;;
37517;SDS011;23366;52.498;13.446;2024-01-10T11:48:34;30.63;;;13.32;;
37517;SDS011;23366;52.498;13.446;2024-01-10T11:51:00;26.17;;;12.52;;
37517;SDS011;23366;52.498;13.446;2024-01-10T11:53:39;27.48;;;11.10;;
37517;SDS011;23366;52.498;13.446;2024-01-10T11:56:09;33.67;;;15.63;;
37517;SDS011;23366;52.498;13.446;2024-01-10T11:58:52;31.88;;;14.73;;
37517;SDS011;23366;52.498;13.446;2024-01-10T12:01:18;30.00;;;12.27;;
37517;SDS011;23366;52.498;13.446;2024-01-10T12:03:44;26.83;;;12.43;;
37517;SDS011;23366;52.498;13.446;2024-01-10T12:06:11;37.80;;;14.10;;
37517;SDS011;23366;52.498;13.446;2024-01-10T12:08:37;34.67;;;14.48;;
37517;SDS011;23366;52.498;13.446;2024-01-10T12:11:03;24.83;;;10.35;;
37517;SDS011;23366;52.498;13.446;2024-01-10T12:13:29;34.53;;;15.88;;
37517;SDS011;23366;52.498;13.446;2024-01-10T12:15:57;26.60;;;11.93;;
37517;SDS011;23366;52.498;13.446;2024-01-10T12:18:23;28.67;;;12.23;;
37517;SDS011;23366;52.498;13.446;2024-01-10T12:20:49;27.75;;;11.23;;
37517;SDS011;23366;52.498;13.446;2024-01-10T12:23:15;30.08;;;11.40;;
37517;SDS011;23366;52.498;13.446;2024-01-10T12:25:40;27.33;;;12.23;;
37517;SDS011;23366;52.498;13.446;2024-01-10T12:28:06;27.50;;;11.60;;
37517;SDS011;23366;52.498;13.446;2024-01-10T12:30:33;25.83;;;12.98;;
37517;SDS011;23366;52.498;13.446;2024-01-10T12:33:02;31.73;;;10.38;;
37517;SDS011;23366;52.498;13.446;2024-01-10T12:35:28;23.35;;;10.43;;
37517;SDS011;23366;52.498;13.446;2024-01-10T12:37:55;31.42;;;13.57;;
37517;SDS011;23366;52.498;13.446;2024-01-10T12:40:21;23.50;;;10.45;;
37517;SDS011;23366;52.498;13.446;2024-01-10T12:42:47;29.52;;;9.55;;
37517;SDS011;23366;52.498;13.446;2024-01-10T12:45:31;21.92;;;11.32;;
37517;SDS011;23366;52.498;13.446;2024-01-10T12:47:57;31.67;;;11.85;;
37517;SDS011;23366;52.498;13.446;2024-01-10T12:50:23;33.28;;;13.35;;
37517;SDS011;23366;52.498;13.446;2024-01-10T12:52:50;33.65;;;15.13;;
37517;SDS011;23366;52.498;13.446;2024-01-10T12:55:16;31.98;;;12.02;;
37517;SDS011;23366;52.498;13.446;2024-01-10T12:57:43;27.00;;;11.73;;
37517;SDS011;23366;52.498;13.446;2024-01-10T13:00:09;46.55;;;14.50;;
37517;SDS011;23366;52.498;13.446;2024-01-10T13:02:36;31.67;;;13.85;;
37517;SDS011;23366;52.498;13.446;2024-01-10T13:05:05;39.42;;;14.75;;
37517;SDS011;23366;52.498;13.446;2024-01-10T13:07:37;35.55;;;12.25;;
37517;SDS011;23366;52.498;13.446;2024-01-10T13:10:03;40.72;;;12.93;;
37517;SDS011;23366;52.498;13.446;2024-01-10T13:12:29;30.88;;;12.40;;
37517;SDS011;23366;52.498;13.446;2024-01-10T13:14:55;29.58;;;14.80;;
37517;SDS011;23366;52.498;13.446;2024-01-10T13:17:21;26.90;;;11.27;;
37517;SDS011;23366;52.498;13.446;2024-01-10T13:19:47;30.08;;;12.88;;
37517;SDS011;23366;52.498;13.446;2024-01-10T13:22:14;35.25;;;13.38;;
37517;SDS011;23366;52.498;13.446;2024-01-10T13:24:43;33.13;;;12.55;;
37517;SDS011;23366;52.498;13.446;2024-01-10T13:27:10;33.13;;;13.15;;
37517;SDS011;23366;52.498;13.446;2024-01-10T13:29:36;37.15;;;14.23;;
37517;SDS011;23366;52.498;13.446;2024-01-10T13:32:03;29.50;;;12.02;;
37517;SDS011;23366;52.498;13.446;2024-01-10T13:34:29;27.95;;;12.77;;
37517;SDS011;23366;52.498;13.446;2024-01-10T13:36:55;33.45;;;12.70;;
37517;SDS011;23366;52.498;13.446;2024-01-10T13:39:21;33.85;;;13.40;;
37517;SDS011;23366;52.498;13.446;2024-01-10T13:41:47;32.38;;;14.65;;
37517;SDS011;23366;52.498;13.446;2024-01-10T13:44:13;31.25;;;12.23;;
37517;SDS011;23366;52.498;13.446;2024-01-10T13:46:39;28.92;;;13.43;;
37517;SDS011;23366;52.498;13.446;2024-01-10T13:49:06;40.17;;;12.23;;
37517;SDS011;23366;52.498;13.446;2024-01-10T13:51:32;29.63;;;13.90;;
37517;SDS011;23366;52.498;13.446;2024-01-10T13:53:58;33.75;;;11.43;;
37517;SDS011;23366;52.498;13.446;2024-01-10T13:56:24;31.88;;;13.65;;
37517;SDS011;23366;52.498;13.446;2024-01-10T13:58:52;27.02;;;10.75;;
37517;SDS011;23366;52.498;13.446;2024-01-10T14:01:18;25.63;;;12.80;;
37517;SDS011;23366;52.498;13.446;2024-01-10T14:03:44;33.25;;;13.00;;
37517;SDS011;23366;52.498;13.446;2024-01-10T14:06:10;36.33;;;12.05;;
37517;SDS011;23366;52.498;13.446;2024-01-10T14:08:36;34.60;;;11.35;;
37517;SDS011;23366;52.498;13.446;2024-01-10T14:11:05;31.30;;;12.25;;